createdAt,value
2023-11-24T00:00:19.284Z,81.12
2023-11-24T00:05:48.918Z,81.71
2023-11-24T00:10:59.986Z,81.57
2023-11-24T00:16:11.460Z,81.54
2023-11-24T00:21:21.625Z,81.57
2023-11-24T00:26:31.659Z,81.38
2023-11-24T00:31:41.211Z,80.82
2023-11-24T00:36:50.991Z,80.13
2023-11-24T00:42:01.894Z,79.88
2023-11-24T00:47:12.259Z,80.29
2023-11-24T00:52:22.105Z,80.51
2023-11-24T00:57:31.878Z,80.42
2023-11-24T01:02:41.646Z,80.13
2023-11-24T01:07:51.639Z,79.62
2023-11-24T01:13:01.238Z,79.35
2023-11-24T01:18:11.837Z,79.50
2023-11-24T01:23:22.294Z,79.68
2023-11-24T01:28:31.868Z,79.79
2023-11-24T01:33:41.593Z,79.91
2023-11-24T01:38:52.095Z,79.82
2023-11-24T01:44:06.022Z,79.85
2023-11-24T01:49:16.031Z,79.65
2023-11-24T01:54:27.597Z,79.43
2023-11-24T01:59:39.078Z,79.64
2023-11-24T02:04:48.726Z,79.71
2023-11-24T02:09:58.502Z,80.00
2023-11-24T02:15:11.380Z,80.36
2023-11-24T02:20:21.493Z,81.56
2023-11-24T02:25:31.086Z,83.92
2023-11-24T02:30:41.299Z,84.69
2023-11-24T02:35:51.157Z,85.35
2023-11-24T02:41:01.676Z,86.37
2023-11-24T02:46:15.201Z,87.14
2023-11-24T02:51:25.877Z,87.14
2023-11-24T02:56:35.603Z,87.32
2023-11-24T03:01:45.277Z,86.99
2023-11-24T03:06:55.223Z,87.28
2023-11-24T03:12:05.396Z,87.43
2023-11-24T03:17:14.881Z,87.42
2023-11-24T03:22:24.592Z,87.42
2023-11-24T03:27:34.512Z,87.54
2023-11-24T03:32:44.103Z,88.53
2023-11-24T03:37:53.826Z,88.61
2023-11-24T03:43:04.208Z,88.50
2023-11-24T03:48:21.046Z,88.10
2023-11-24T03:53:30.974Z,87.77
2023-11-24T03:58:40.479Z,87.73
2023-11-24T04:03:53.048Z,87.68
2023-11-24T04:09:02.794Z,87.42
2023-11-24T04:14:12.376Z,87.32
2023-11-24T04:19:22.056Z,87.29
2023-11-24T04:24:31.962Z,87.12
2023-11-24T04:29:42.119Z,86.96
2023-11-24T04:34:51.806Z,87.15
2023-11-24T04:40:01.712Z,86.98
2023-11-24T04:45:14.020Z,87.15
2023-11-24T04:50:24.011Z,87.12
2023-11-24T04:55:34.574Z,87.03
2023-11-24T05:00:44.218Z,86.79
2023-11-24T05:05:53.807Z,86.79
2023-11-24T05:11:03.909Z,86.96
2023-11-24T05:16:14.093Z,86.86
2023-11-24T05:21:23.739Z,86.78
2023-11-24T05:26:34.048Z,86.79
2023-11-24T05:31:43.701Z,86.65
2023-11-24T05:36:53.310Z,86.42
2023-11-24T05:42:05.579Z,86.21
2023-11-24T05:47:15.336Z,86.25
2023-11-24T05:52:25.170Z,86.18
2023-11-24T05:57:35.398Z,86.23
2023-11-24T06:02:45.067Z,86.31
2023-11-24T06:07:56.446Z,86.22
2023-11-24T06:13:07.966Z,86.42
2023-11-24T06:18:18.021Z,86.54
2023-11-24T06:23:27.550Z,86.63
2023-11-24T06:28:37.236Z,86.51
2023-11-24T06:33:47.365Z,86.54
2023-11-24T06:38:57.234Z,86.35
2023-11-24T06:44:07.849Z,86.16
2023-11-24T06:49:18.893Z,85.94
2023-11-24T06:54:29.121Z,85.54
2023-11-24T06:59:39.536Z,85.51
2023-11-24T07:04:51.168Z,85.14
2023-11-24T07:10:02.875Z,84.78
2023-11-24T07:15:14.814Z,84.69
2023-11-24T07:20:25.008Z,84.43
2023-11-24T07:25:34.773Z,84.29
2023-11-24T07:30:44.797Z,84.09
2023-11-24T07:35:54.406Z,84.11
2023-11-24T07:41:06.162Z,83.21
2023-11-24T07:46:15.971Z,81.90
2023-11-24T07:51:26.139Z,81.75
2023-11-24T07:56:38.074Z,81.63
2023-11-24T08:01:48.061Z,82.01
2023-11-24T08:06:57.853Z,81.51
2023-11-24T08:12:12.360Z,82.03
2023-11-24T08:17:23.849Z,83.29
2023-11-24T08:22:33.758Z,84.51
2023-11-24T08:27:46.175Z,85.19
2023-11-24T08:32:56.087Z,85.90
2023-11-24T08:38:06.376Z,86.96
2023-11-24T08:43:16.363Z,87.66
2023-11-24T08:48:26.417Z,88.24
2023-11-24T08:53:36.390Z,88.26
2023-11-24T08:58:46.120Z,88.15
2023-11-24T09:03:56.038Z,88.39
2023-11-24T09:09:08.663Z,88.45
2023-11-24T09:14:18.767Z,88.64
2023-11-24T09:19:28.364Z,88.47
2023-11-24T09:24:38.140Z,88.12
2023-11-24T09:29:49.271Z,87.72
2023-11-24T09:34:59.479Z,87.68
2023-11-24T09:40:18.073Z,87.33
2023-11-24T09:45:28.669Z,87.34
2023-11-24T09:50:41.117Z,87.17
2023-11-24T09:55:50.826Z,86.72
2023-11-24T10:01:09.120Z,86.54
2023-11-24T10:06:19.296Z,86.35
2023-11-24T10:11:34.879Z,86.33
2023-11-24T10:16:45.269Z,86.29
2023-11-24T10:21:57.432Z,86.23
2023-11-24T10:27:23.788Z,85.89
2023-11-24T10:32:33.579Z,86.18
2023-11-24T10:37:43.893Z,85.88
2023-11-24T10:42:58.679Z,85.83
2023-11-24T10:48:22.240Z,85.40
2023-11-24T10:53:38.568Z,85.17
2023-11-24T10:58:53.624Z,84.96
2023-11-24T11:04:04.457Z,84.36
2023-11-24T11:09:31.118Z,84.65
2023-11-24T11:14:41.504Z,84.04
2023-11-24T11:20:06.933Z,84.23
2023-11-24T11:25:44.896Z,83.79
2023-11-24T11:30:59.012Z,84.25
2023-11-24T11:36:13.216Z,84.00
2023-11-24T11:41:46.168Z,83.96
2023-11-24T11:47:26.283Z,84.08
2023-11-24T11:52:36.976Z,84.67
2023-11-24T11:57:53.482Z,85.25
2023-11-24T12:03:06.630Z,85.36
2023-11-24T12:08:19.005Z,85.29
2023-11-24T12:13:30.378Z,84.69
2023-11-24T12:18:40.305Z,83.61
2023-11-24T12:23:50.824Z,83.44
2023-11-24T12:29:04.291Z,83.06
2023-11-24T12:34:24.020Z,82.59
2023-11-24T12:39:35.751Z,82.43
2023-11-24T12:44:45.584Z,82.40
2023-11-24T12:50:08.655Z,81.77
2023-11-24T12:55:19.923Z,81.93
2023-11-24T13:00:30.337Z,82.32
2023-11-24T13:05:40.675Z,82.57
2023-11-24T13:10:54.688Z,82.61
2023-11-24T13:16:06.772Z,82.43
2023-11-24T13:21:16.970Z,82.68
2023-11-24T13:26:27.418Z,82.89
2023-11-24T13:31:42.834Z,82.83
2023-11-24T13:36:52.744Z,82.75
2023-11-24T13:42:02.470Z,82.44
2023-11-24T13:47:14.630Z,82.08
2023-11-24T13:52:24.656Z,82.13
2023-11-24T13:57:34.906Z,82.13
2023-11-24T14:02:46.812Z,82.48
2023-11-24T14:07:56.708Z,82.23
2023-11-24T14:13:07.388Z,82.18
2023-11-24T14:18:17.148Z,82.40
2023-11-24T14:23:27.128Z,82.64
2023-11-24T14:28:37.718Z,83.06
2023-11-24T14:33:47.383Z,83.29
2023-11-24T14:38:58.193Z,83.47
2023-11-24T14:44:09.688Z,83.56
2023-11-24T14:49:19.849Z,83.70
2023-11-24T14:54:31.442Z,83.76
2023-11-24T14:59:41.320Z,83.78
2023-11-24T15:04:51.180Z,83.82
2023-11-24T15:10:01.246Z,83.76
2023-11-24T15:15:13.592Z,83.67
2023-11-24T15:20:27.500Z,83.56
2023-11-24T15:25:49.602Z,83.53
2023-11-24T15:31:01.288Z,83.62
2023-11-24T15:36:14.640Z,83.86
2023-11-24T15:41:37.404Z,84.38
2023-11-24T15:46:47.480Z,85.11
2023-11-24T15:51:59.709Z,85.49
2023-11-24T15:57:11.522Z,85.79
2023-11-24T16:02:26.802Z,85.95
2023-11-24T16:07:36.701Z,86.36
2023-11-24T16:12:50.077Z,86.61
2023-11-24T16:18:00.469Z,86.54
2023-11-24T16:23:10.391Z,86.65
2023-11-24T16:28:20.141Z,86.46
2023-11-24T16:33:30.704Z,86.11
2023-11-24T16:38:41.148Z,85.95
2023-11-24T16:43:50.913Z,85.90
2023-11-24T16:49:00.565Z,85.88
2023-11-24T16:54:11.196Z,85.89
2023-11-24T16:59:22.128Z,85.91
2023-11-24T17:04:32.172Z,85.94
2023-11-24T17:09:43.036Z,86.02
2023-11-24T17:14:53.512Z,85.99
2023-11-24T17:20:03.517Z,86.03
2023-11-24T17:25:21.535Z,85.94
2023-11-24T17:30:38.204Z,86.00
2023-11-24T17:35:49.170Z,86.01
2023-11-24T17:40:59.605Z,86.00
2023-11-24T17:46:09.631Z,86.00
2023-11-24T17:51:19.708Z,85.88
2023-11-24T17:56:29.568Z,85.90
2023-11-24T18:01:39.941Z,85.89
2023-11-24T18:06:49.926Z,85.85
2023-11-24T18:11:59.915Z,85.90
2023-11-24T18:17:10.502Z,86.00
2023-11-24T18:22:20.692Z,86.15
2023-11-24T18:27:30.401Z,86.13
2023-11-24T18:32:40.642Z,86.13
2023-11-24T18:37:50.553Z,86.17
2023-11-24T18:43:01.292Z,86.14
2023-11-24T18:48:12.071Z,86.13
2023-11-24T18:53:21.724Z,86.15
2023-11-24T18:58:31.557Z,86.11
2023-11-24T19:03:41.254Z,86.04
2023-11-24T19:08:52.449Z,86.04
2023-11-24T19:14:03.093Z,86.00
2023-11-24T19:19:13.430Z,86.04
2023-11-24T19:24:23.110Z,86.88
2023-11-24T19:29:32.925Z,86.00
2023-11-24T19:34:42.835Z,86.04
2023-11-24T19:39:52.425Z,86.10
2023-11-24T19:45:02.548Z,86.21
2023-11-24T19:50:13.578Z,86.37
2023-11-24T19:55:23.609Z,86.59
2023-11-24T20:00:33.296Z,86.68
2023-11-24T20:05:42.969Z,86.86
2023-11-24T20:10:54.308Z,87.03
2023-11-24T20:16:04.078Z,87.07
2023-11-24T20:21:14.355Z,87.13
2023-11-24T20:26:24.606Z,87.11
2023-11-24T20:31:34.944Z,87.09
2023-11-24T20:36:45.297Z,87.23
2023-11-24T20:41:56.263Z,87.24
2023-11-24T20:47:06.127Z,87.34
2023-11-24T20:52:17.071Z,87.39
2023-11-24T20:57:26.940Z,87.53
2023-11-24T21:02:36.695Z,87.60
2023-11-24T21:07:46.412Z,87.51
2023-11-24T21:12:56.104Z,87.59
2023-11-24T21:18:06.945Z,87.82
2023-11-24T21:23:16.914Z,87.75
2023-11-24T21:28:27.233Z,87.83
2023-11-24T21:33:38.419Z,87.88
2023-11-24T21:38:48.049Z,87.91
2023-11-24T21:43:57.642Z,87.89
2023-11-24T21:49:08.152Z,87.90
2023-11-24T21:54:17.758Z,87.87
2023-11-24T21:59:28.043Z,87.89
2023-11-24T22:04:37.672Z,87.93
2023-11-24T22:09:47.238Z,87.93
2023-11-24T22:14:58.433Z,88.01
2023-11-24T22:20:12.230Z,88.03
2023-11-24T22:25:22.674Z,88.05
2023-11-24T22:30:32.820Z,88.07
2023-11-24T22:35:43.353Z,88.04
2023-11-24T22:40:53.028Z,88.01
2023-11-24T22:46:03.855Z,88.01
2023-11-24T22:51:20.743Z,88.00
2023-11-24T22:56:31.081Z,88.02
2023-11-24T23:01:41.278Z,88.01
2023-11-24T23:06:51.061Z,88.04
2023-11-24T23:12:00.755Z,88.08
2023-11-24T23:17:12.070Z,88.10
2023-11-24T23:22:31.201Z,88.10
2023-11-24T23:27:46.174Z,88.08
2023-11-24T23:33:03.489Z,88.09
2023-11-24T23:38:21.747Z,88.11
2023-11-24T23:43:31.633Z,88.14
2023-11-24T23:48:41.500Z,88.19
2023-11-24T23:53:51.037Z,88.21
2023-11-24T23:59:01.287Z,88.29
